Time;durP1;ratioP1;P1;durP2;ratioP2;P2;SDS_P1;SDS_P2;PMS_P1;PMS_P2;Temp;Humidity;BMP_temperature;BMP_pressure;BME280_temperature;BME280_humidity;BME280_pressure;Samples;Min_cycle;Max_cycle;Signal;HPM_P1;HPM_P2
2022/06/25 00:00:04;;;;;;;11.85;5.30;;;;;;;23.90;100.00;99771.84;5112777;28;20216;-68
2022/06/25 00:02:31;;;;;;;11.63;5.90;;;;;;;23.93;100.00;99777.03;5112656;28;20229;-68
2022/06/25 00:07:42;;;;;;;8.98;5.18;;;;;;;23.90;100.00;99771.03;5111646;28;20204;-68
2022/06/25 00:10:10;;;;;;;7.72;5.18;;;;;;;23.88;100.00;99770.22;5112386;28;20201;-68
2022/06/25 00:12:36;;;;;;;6.63;5.32;;;;;;;23.69;100.00;99752.50;5112230;28;20208;-68
2022/06/25 00:15:05;;;;;;;15.18;6.15;;;;;;;23.84;100.00;99777.44;5112178;28;20288;-67
2022/06/25 00:17:33;;;;;;;10.07;5.45;;;;;;;23.69;100.00;99751.63;5112385;28;20201;-68
2022/06/25 00:19:59;;;;;;;8.40;5.80;;;;;;;23.60;100.00;99775.84;5112386;28;20185;-68
2022/06/25 00:22:26;;;;;;;10.95;6.80;;;;;;;23.54;100.00;99768.19;5112227;28;20201;-68
2022/06/25 00:24:53;;;;;;;8.88;6.07;;;;;;;23.52;100.00;99776.19;5092894;28;20201;-67
2022/06/25 00:27:22;;;;;;;6.18;5.65;;;;;;;23.44;100.00;99777.41;5111889;28;20189;-68
2022/06/25 00:29:48;;;;;;;8.30;6.57;;;;;;;23.33;100.00;99782.31;5111886;28;20228;-68
2022/06/25 00:32:15;;;;;;;11.00;5.68;;;;;;;23.26;100.00;99776.38;5112549;28;20204;-68
2022/06/25 00:34:43;;;;;;;6.63;5.63;;;;;;;23.22;100.00;99770.34;5111361;28;20287;-68
2022/06/25 00:37:10;;;;;;;5.70;5.13;;;;;;;22.93;100.00;99775.13;5111587;28;20205;-68
2022/06/25 00:39:38;;;;;;;10.57;6.15;;;;;;;22.51;100.00;99753.88;5111197;28;20201;-68
2022/06/25 00:42:10;;;;;;;6.50;5.60;;;;;;;22.40;100.00;99777.19;5111128;28;20660;-68
2022/06/25 00:44:38;;;;;;;7.68;5.45;;;;;;;22.17;100.00;99776.28;5112014;28;20321;-68
2022/06/25 00:47:08;;;;;;;9.52;5.93;;;;;;;22.14;100.00;99768.47;5111722;28;20189;-67
2022/06/25 00:49:35;;;;;;;11.68;5.53;;;;;;;22.02;100.00;99771.56;5111851;28;20205;-68
2022/06/25 00:52:07;;;;;;;10.23;5.60;;;;;;;22.10;100.00;99764.22;5111564;28;20202;-68
2022/06/25 00:54:37;;;;;;;12.75;6.18;;;;;;;22.08;100.00;99763.41;5111767;28;20201;-68
2022/06/25 00:57:06;;;;;;;9.13;5.55;;;;;;;22.03;100.00;99765.38;5111928;28;20688;-68
2022/06/25 00:59:42;;;;;;;8.35;6.00;;;;;;;22.04;100.00;99771.50;5111431;28;20220;-68
2022/06/25 01:02:09;;;;;;;18.83;6.13;;;;;;;21.83;100.00;99748.50;5111437;28;20190;-68
2022/06/25 01:04:38;;;;;;;11.30;5.40;;;;;;;22.03;100.00;99764.50;5111356;28;20221;-68
2022/06/25 01:07:05;;;;;;;12.43;5.93;;;;;;;21.91;100.00;99760.50;5111300;28;20198;-68
2022/06/25 01:09:32;;;;;;;9.07;4.85;;;;;;;21.81;100.00;99768.78;5111364;28;20285;-67
2022/06/25 01:11:59;;;;;;;7.53;5.40;;;;;;;21.77;100.00;99773.31;5111378;28;20205;-67
2022/06/25 01:14:26;;;;;;;14.13;5.53;;;;;;;21.73;100.00;99775.19;5111071;28;20216;-68
2022/06/25 01:16:54;;;;;;;9.05;6.07;;;;;;;21.64;100.00;99749.16;5111400;28;20212;-67
2022/06/25 01:19:21;;;;;;;12.95;6.10;;;;;;;21.54;100.00;99773.28;5111341;28;20205;-67
2022/06/25 01:21:48;;;;;;;7.97;5.85;;;;;;;21.53;100.00;99764.50;5111393;28;20201;-67
2022/06/25 01:24:16;;;;;;;7.78;5.90;;;;;;;21.59;100.00;99773.97;5091923;28;20282;-67
2022/06/25 01:26:43;;;;;;;10.52;5.40;;;;;;;21.64;100.00;99777.31;5111020;28;20190;-68
2022/06/25 01:29:10;;;;;;;6.38;5.60;;;;;;;21.48;100.00;99747.09;5111058;28;20610;-68
2022/06/25 01:31:38;;;;;;;10.00;6.03;;;;;;;21.67;100.00;99772.78;5111027;28;20838;-68
2022/06/25 01:34:05;;;;;;;12.57;5.90;;;;;;;21.59;100.00;99745.78;5110695;28;20193;-67
2022/06/25 01:36:32;;;;;;;7.15;4.90;;;;;;;21.78;100.00;99775.03;5110909;28;20223;-68
2022/06/25 01:38:59;;;;;;;6.10;4.72;;;;;;;21.84;100.00;99780.09;5103689;28;20197;-67
2022/06/25 01:41:27;;;;;;;11.00;4.70;;;;;;;21.90;100.00;99779.03;5110740;28;20211;-68
2022/06/25 01:43:54;;;;;;;5.80;5.05;;;;;;;21.87;100.00;99779.16;5110698;28;20221;-67
2022/06/25 01:46:21;;;;;;;6.50;4.43;;;;;;;21.91;100.00;99776.34;5111133;28;20529;-68
2022/06/25 01:48:48;;;;;;;10.27;4.10;;;;;;;21.88;100.00;99771.16;5111052;28;20205;-68
2022/06/25 01:51:16;;;;;;;4.78;4.38;;;;;;;22.01;100.00;99783.03;5110719;28;20189;-68
2022/06/25 01:53:43;;;;;;;5.82;4.50;;;;;;;22.25;100.00;99797.13;5111002;28;20209;-68
2022/06/25 01:56:10;;;;;;;6.43;3.92;;;;;;;22.07;100.00;99774.91;5111297;28;20198;-68
2022/06/25 01:58:38;;;;;;;4.63;4.18;;;;;;;22.00;100.00;99794.53;5110576;28;20201;-68
2022/06/25 02:01:05;;;;;;;4.70;4.30;;;;;;;22.07;100.00;99797.81;5111228;28;20197;-68
2022/06/25 02:03:32;;;;;;;6.78;4.78;;;;;;;21.90;100.00;99790.50;5110923;28;20225;-68
2022/06/25 02:05:59;;;;;;;5.65;4.18;;;;;;;21.92;100.00;99778.09;5087753;28;20194;-68
2022/06/25 02:08:29;;;;;;;7.25;4.63;;;;;;;22.20;100.00;99783.22;5097990;28;20205;-69
2022/06/25 02:10:57;;;;;;;4.97;4.55;;;;;;;21.67;100.00;99720.00;5111053;28;20211;-68
2022/06/25 02:13:25;;;;;;;13.20;4.55;;;;;;;22.03;100.00;99793.53;5075002;28;20204;-68
2022/06/25 02:15:54;;;;;;;5.18;4.68;;;;;;;22.17;100.00;99796.53;5110946;28;20216;-69
2022/06/25 02:18:22;;;;;;;7.85;4.57;;;;;;;22.04;100.00;99775.03;5110371;28;20206;-69
2022/06/25 02:20:49;;;;;;;9.27;4.82;;;;;;;22.24;100.00;99792.75;5110411;28;20197;-68
2022/06/25 02:23:16;;;;;;;5.82;4.15;;;;;;;22.35;100.00;99798.50;5075318;28;20225;-69
2022/06/25 02:25:44;;;;;;;9.85;5.38;;;;;;;22.37;100.00;99795.78;5110374;28;20210;-69
2022/06/25 02:28:11;;;;;;;4.55;4.15;;;;;;;22.29;100.00;99772.31;5112831;28;20543;-68
2022/06/25 02:30:38;;;;;;;7.93;5.00;;;;;;;22.38;100.00;99786.94;5114510;28;20781;-69
2022/06/25 02:33:11;;;;;;;7.82;5.40;;;;;;;22.61;100.00;99800.16;5078299;28;20190;-69
2022/06/25 02:35:39;;;;;;;5.28;4.35;;;;;;;22.55;100.00;99795.94;5113708;28;20190;-69
2022/06/25 02:38:06;;;;;;;4.60;4.20;;;;;;;22.62;100.00;99805.38;5113875;28;20255;-67
2022/06/25 02:40:33;;;;;;;6.93;4.03;;;;;;;22.70;100.00;99816.56;5114040;28;20193;-67
2022/06/25 02:43:01;;;;;;;7.05;4.32;;;;;;;22.77;100.00;99817.16;5078260;28;20204;-67
2022/06/25 02:45:27;;;;;;;9.90;4.35;;;;;;;22.81;100.00;99825.84;5113802;28;20202;-67
2022/06/25 02:47:55;;;;;;;4.72;4.18;;;;;;;22.88;100.00;99814.09;5092644;28;20198;-67
2022/06/25 02:50:23;;;;;;;4.63;4.22;;;;;;;22.99;100.00;99823.34;5114139;28;20201;-67
2022/06/25 02:52:50;;;;;;;8.48;4.45;;;;;;;22.99;100.00;99831.28;5114061;28;20228;-69
2022/06/25 02:55:17;;;;;;;4.40;4.00;;;;;;;22.96;100.00;99826.13;5091285;28;20230;-66
2022/06/25 03:00:28;;;;;;;5.07;4.68;;;;;;;23.26;100.00;99846.97;5096400;28;20677;-68
2022/06/25 03:02:55;;;;;;;5.05;4.60;;;;;;;23.23;100.00;99843.50;5113835;28;20201;-68
2022/06/25 03:05:23;;;;;;;9.88;5.70;;;;;;;22.97;100.00;99834.91;5113484;28;20221;-68
2022/06/25 03:07:50;;;;;;;11.98;7.05;;;;;;;22.58;100.00;99845.22;5112855;28;20661;-69
2022/06/25 03:10:16;;;;;;;11.32;6.78;;;;;;;22.61;100.00;99837.16;5114036;28;20193;-68
2022/06/25 03:12:43;;;;;;;12.02;6.90;;;;;;;22.62;100.00;99821.22;5112676;28;20197;-68
2022/06/25 03:15:11;;;;;;;11.30;6.70;;;;;;;22.94;100.00;99833.22;5113244;28;20204;-69
2022/06/25 03:17:37;;;;;;;7.75;6.85;;;;;;;23.13;100.00;99836.00;5112837;28;20196;-69
2022/06/25 03:20:05;;;;;;;8.90;6.28;;;;;;;23.70;100.00;99812.47;5111392;28;20198;-69
2022/06/25 03:22:34;;;;;;;9.13;6.38;;;;;;;24.56;100.00;99838.69;5075779;28;20602;-68
2022/06/25 03:25:00;;;;;;;8.25;5.88;;;;;;;24.83;100.00;99839.22;5112384;28;20213;-67
2022/06/25 03:27:27;;;;;;;10.82;5.82;;;;;;;25.33;100.00;99842.13;5089136;28;20190;-69
2022/06/25 03:29:54;;;;;;;11.13;6.20;;;;;;;25.83;97.17;99840.44;5093610;28;20228;-70
2022/06/25 03:32:21;;;;;;;9.43;5.85;;;;;;;25.88;97.56;99834.91;5111754;28;20201;-69
2022/06/25 03:34:48;;;;;;;7.32;5.55;;;;;;;25.91;93.61;99827.63;5113093;28;20201;-68
2022/06/25 03:37:15;;;;;;;7.57;5.00;;;;;;;26.14;91.07;99829.09;5112042;28;20197;-69
2022/06/25 03:39:43;;;;;;;12.20;5.40;;;;;;;26.56;89.82;99848.09;5076826;28;20205;-70
2022/06/25 03:42:10;;;;;;;9.02;5.60;;;;;;;26.82;87.67;99849.38;5112183;28;20197;-69
2022/06/25 03:44:37;;;;;;;16.05;5.07;;;;;;;27.10;85.21;99846.03;5111823;28;20221;-69
2022/06/25 03:47:04;;;;;;;6.55;5.35;;;;;;;27.27;81.60;99842.38;5113105;28;20590;-68
2022/06/25 03:49:31;;;;;;;7.95;5.00;;;;;;;27.61;80.91;99850.19;5093394;28;20198;-68
2022/06/25 03:51:58;;;;;;;10.00;5.10;;;;;;;27.75;77.91;99860.91;5113204;28;20204;-68
2022/06/25 03:54:25;;;;;;;8.52;4.88;;;;;;;27.93;77.07;99862.44;5112461;28;20197;-68
2022/06/25 03:56:53;;;;;;;9.93;4.70;;;;;;;27.57;76.33;99806.88;5113121;28;20192;-68
2022/06/25 03:59:20;;;;;;;11.13;5.30;;;;;;;27.66;76.74;99866.75;5112666;28;20212;-68
2022/06/25 04:01:47;;;;;;;16.35;6.20;;;;;;;27.17;79.57;99867.84;5112824;28;20205;-69
2022/06/25 04:04:14;;;;;;;9.85;5.65;;;;;;;26.89;80.91;99877.38;5075572;28;20603;-68
2022/06/25 04:06:41;;;;;;;11.88;5.28;;;;;;;26.33;84.09;99871.53;5112646;28;20637;-68
2022/06/25 04:09:08;;;;;;;10.95;4.97;;;;;;;25.87;87.63;99865.91;5112281;28;20672;-68
2022/06/25 04:11:35;;;;;;;9.85;5.50;;;;;;;26.14;87.85;99872.50;5076498;28;20204;-68
2022/06/25 04:14:03;;;;;;;10.80;5.60;;;;;;;26.41;83.75;99802.84;5112644;28;20202;-69
2022/06/25 04:16:30;;;;;;;14.65;5.60;;;;;;;27.43;78.60;99880.53;5112270;28;20205;-68
2022/06/25 04:18:57;;;;;;;8.18;5.03;;;;;;;27.98;75.79;99871.03;5112142;28;20212;-68
2022/06/25 04:21:24;;;;;;;19.10;6.28;;;;;;;28.88;68.85;99873.53;5112442;28;20203;-69
2022/06/25 04:23:51;;;;;;;6.35;5.45;;;;;;;29.36;66.43;99890.94;5112326;28;20220;-68
2022/06/25 04:26:18;;;;;;;7.30;5.50;;;;;;;29.98;63.33;99890.28;5111901;28;20254;-69
2022/06/25 04:31:38;;;;;;;14.25;5.50;;;;;;;30.85;57.75;99881.56;5049080;28;20605;-69
2022/06/25 04:34:06;;;;;;;8.57;5.30;;;;;;;30.89;56.71;99899.13;5049037;28;20194;-69
2022/06/25 04:36:33;;;;;;;14.93;5.32;;;;;;;31.13;55.25;99897.38;5048211;28;20766;-70
2022/06/25 04:39:00;;;;;;;6.40;5.15;;;;;;;31.23;54.15;99916.31;5049294;28;20567;-67
2022/06/25 04:41:27;;;;;;;10.50;5.65;;;;;;;31.48;52.78;99905.50;5049033;28;20213;-67
2022/06/25 04:43:53;;;;;;;5.53;4.93;;;;;;;31.59;52.54;99910.09;5048558;28;20214;-68
2022/06/25 04:46:20;;;;;;;7.75;5.65;;;;;;;31.46;52.41;99905.59;5048994;28;20202;-68
2022/06/25 04:48:48;;;;;;;20.48;5.45;;;;;;;31.09;52.96;99901.22;5044836;28;20195;-69
2022/06/25 04:51:15;;;;;;;13.82;7.28;;;;;;;31.25;54.31;99914.38;5028687;28;20254;-68
2022/06/25 04:53:56;;;;;;;17.63;9.27;;;;;;;31.24;53.82;99912.66;5028941;28;20288;-69
2022/06/25 04:56:24;;;;;;;21.52;9.70;;;;;;;31.69;53.83;99911.97;5046962;28;20230;-68
2022/06/25 04:58:51;;;;;;;27.23;10.57;;;;;;;32.11;53.18;99912.41;5048774;28;20198;-69
2022/06/25 05:01:18;;;;;;;29.90;9.98;;;;;;;32.54;51.11;99918.84;5048836;28;20199;-69
2022/06/25 05:03:44;;;;;;;21.80;10.07;;;;;;;32.76;50.05;99921.56;5048043;28;20232;-68
2022/06/25 05:06:13;;;;;;;18.95;9.25;;;;;;;33.07;49.41;99903.03;5048292;28;20202;-68
2022/06/25 05:08:41;;;;;;;19.17;8.80;;;;;;;33.02;49.52;99927.56;5050994;28;20193;-69
2022/06/25 05:11:08;;;;;;;18.55;9.18;;;;;;;32.58;50.06;99932.88;5111295;28;20235;-68
2022/06/25 05:13:35;;;;;;;21.58;8.38;;;;;;;32.43;51.25;99921.50;5110717;28;20196;-68
2022/06/25 05:16:02;;;;;;;19.02;8.98;;;;;;;32.81;50.63;99938.19;5111209;28;20672;-68
2022/06/25 05:18:28;;;;;;;17.83;9.38;;;;;;;33.12;50.58;99916.94;5075325;28;20201;-68
2022/06/25 05:20:55;;;;;;;19.83;8.50;;;;;;;33.66;48.81;99928.59;5111200;28;20197;-68
2022/06/25 05:23:23;;;;;;;18.38;8.60;;;;;;;33.39;49.04;99942.44;5110664;28;20204;-69
2022/06/25 05:25:50;;;;;;;15.57;7.97;;;;;;;33.39;49.66;99942.44;5088069;28;20218;-69
2022/06/25 05:28:17;;;;;;;18.63;7.50;;;;;;;33.14;49.91;99874.69;5072081;28;20189;-69
2022/06/25 05:30:44;;;;;;;21.08;8.18;;;;;;;33.71;49.08;99933.63;5096312;28;20239;-68
2022/06/25 05:33:11;;;;;;;17.38;7.47;;;;;;;33.98;48.17;99943.88;5111172;28;20204;-68
2022/06/25 05:35:38;;;;;;;16.83;7.70;;;;;;;34.40;48.35;99942.97;5111250;28;20664;-68
2022/06/25 05:38:07;;;;;;;16.27;7.65;;;;;;;34.53;47.67;99937.38;5110626;28;20196;-68
2022/06/25 05:40:35;;;;;;;13.43;7.00;;;;;;;34.71;47.34;99952.81;5094677;28;20672;-68
2022/06/25 05:43:02;;;;;;;15.77;7.20;;;;;;;34.21;47.97;99934.78;5104883;28;20204;-68
2022/06/25 05:45:29;;;;;;;10.38;6.82;;;;;;;33.15;50.54;99939.06;5091405;28;20220;-68
2022/06/25 05:47:56;;;;;;;13.18;7.57;;;;;;;32.56;52.05;99924.97;5090725;28;20197;-76
2022/06/25 05:50:23;;;;;;;11.85;6.80;;;;;;;32.89;51.88;99953.72;5095610;28;20215;-68
2022/06/25 05:52:50;;;;;;;13.02;6.50;;;;;;;33.43;51.50;99952.97;5099388;28;20206;-70
2022/06/25 05:55:17;;;;;;;13.93;7.32;;;;;;;33.10;51.00;99945.75;5093331;28;20235;-71
2022/06/25 05:57:46;;;;;;;11.93;6.93;;;;;;;32.90;52.58;99958.94;5110548;28;20205;-67
2022/06/25 06:00:13;;;;;;;16.45;7.10;;;;;;;32.73;52.62;99947.81;5108172;28;20197;-66
2022/06/25 06:02:40;;;;;;;10.55;6.57;;;;;;;32.65;52.45;99940.38;5088112;28;20201;-67
2022/06/25 06:05:08;;;;;;;8.45;6.15;;;;;;;31.87;55.40;99940.09;5113052;28;20228;-70
2022/06/25 06:07:35;;;;;;;8.20;6.15;;;;;;;31.90;56.20;99939.84;5113324;28;20707;-71
2022/06/25 06:10:02;;;;;;;8.40;5.90;;;;;;;31.53;59.18;99943.59;5114771;28;20204;-70
2022/06/25 06:12:28;;;;;;;12.13;7.85;;;;;;;31.49;56.94;99925.97;5114564;28;20210;-68
2022/06/25 06:14:57;;;;;;;28.58;18.25;;;;;;;31.94;57.79;99943.16;5095582;28;20232;-67
2022/06/25 06:17:23;;;;;;;13.27;6.60;;;;;;;32.39;55.66;99945.03;5097366;28;20670;-69
2022/06/25 06:19:50;;;;;;;12.65;5.68;;;;;;;32.27;56.01;99927.22;5097067;28;20197;-70
2022/06/25 06:22:17;;;;;;;14.88;6.75;;;;;;;31.09;59.77;99933.38;5075179;28;20665;-70
2022/06/25 06:24:44;;;;;;;12.02;6.15;;;;;;;30.85;61.41;99933.28;5094088;28;20221;-71
2022/06/25 06:27:11;;;;;;;7.22;5.40;;;;;;;31.02;61.66;99928.56;5111776;28;20212;-71
2022/06/25 06:29:37;;;;;;;14.68;6.00;;;;;;;30.91;63.85;99937.34;5101869;28;20676;-70
2022/06/25 06:32:07;;;;;;;6.45;5.85;;;;;;;30.68;66.42;99930.09;5103380;28;20189;-70
2022/06/25 06:34:34;;;;;;;11.00;6.70;;;;;;;30.21;66.96;99928.84;5076760;28;20210;-69
2022/06/25 06:37:01;;;;;;;9.15;6.72;;;;;;;29.78;68.03;99909.47;5094187;28;20201;-70
2022/06/25 06:39:28;;;;;;;9.80;6.38;;;;;;;30.12;69.73;99918.75;5058128;28;20610;-68
2022/06/25 06:41:54;;;;;;;8.82;6.43;;;;;;;29.98;69.91;99900.97;5094144;28;20204;-68
2022/06/25 06:44:21;;;;;;;9.52;5.40;;;;;;;29.11;73.63;99917.47;5097173;28;20201;-69
2022/06/25 06:46:48;;;;;;;13.48;5.90;;;;;;;29.16;79.06;99910.00;5078173;28;20201;-70
2022/06/25 06:49:16;;;;;;;14.35;5.30;;;;;;;29.00;75.87;99908.31;5114074;28;20197;-70
2022/06/25 06:51:43;;;;;;;6.30;4.90;;;;;;;28.63;66.41;99908.88;5106938;28;20205;-69
2022/06/25 06:54:10;;;;;;;4.45;3.38;;;;;;;28.14;61.29;99907.50;5114014;28;20193;-68
2022/06/25 06:56:37;;;;;;;3.88;3.40;;;;;;;28.14;62.99;99907.50;5114079;28;20288;-74
2022/06/25 06:59:04;;;;;;;7.80;3.95;;;;;;;28.47;62.84;99911.63;5113938;28;20205;-71
2022/06/25 07:01:31;;;;;;;4.40;4.00;;;;;;;28.86;62.44;99892.31;5113852;28;20229;-68
2022/06/25 07:03:57;;;;;;;16.15;3.90;;;;;;;29.15;59.87;99900.28;5113520;28;20250;-69
2022/06/25 07:06:26;;;;;;;11.05;3.70;;;;;;;29.29;56.23;99892.25;5112653;28;20697;-70
2022/06/25 07:08:52;;;;;;;10.45;3.30;;;;;;;28.81;57.71;99907.78;5113497;28;20206;-70
2022/06/25 07:11:31;;;;;;;4.93;2.90;;;;;;;28.57;55.78;99907.44;5112546;28;20204;-70
2022/06/25 07:13:59;;;;;;;5.97;3.35;;;;;;;28.83;55.41;99913.00;5112922;28;20649;-71
2022/06/25 07:16:27;;;;;;;7.97;3.00;;;;;;;28.88;54.07;99916.25;5094035;28;20198;-70
2022/06/25 07:18:55;;;;;;;3.40;3.13;;;;;;;28.35;54.85;99909.72;5113773;28;20259;-70
2022/06/25 07:21:22;;;;;;;4.78;2.80;;;;;;;27.84;56.59;99841.69;5113757;28;20289;-70
2022/06/25 07:23:50;;;;;;;3.38;3.17;;;;;;;28.35;56.77;99895.53;5113147;28;20197;-69
2022/06/25 07:26:17;;;;;;;10.93;3.38;;;;;;;28.65;56.26;99914.97;5113078;28;20225;-70
2022/06/25 07:28:44;;;;;;;5.10;3.00;;;;;;;28.41;54.99;99908.47;5113098;28;20208;-67
2022/06/25 07:31:11;;;;;;;5.28;3.10;;;;;;;28.61;56.40;99881.41;5113055;28;20241;-67
2022/06/25 07:33:37;;;;;;;9.65;3.92;;;;;;;28.54;56.90;99886.28;5112212;27;20564;-68
2022/06/25 07:36:05;;;;;;;6.22;2.90;;;;;;;28.35;54.62;99916.84;5094131;28;20197;-67
2022/06/25 07:38:33;;;;;;;3.70;2.95;;;;;;;28.44;53.57;99917.16;5077151;28;20668;-68
2022/06/25 07:41:02;;;;;;;3.25;2.50;;;;;;;28.61;54.63;99918.78;5113614;28;20193;-67
2022/06/25 07:43:29;;;;;;;4.15;2.67;;;;;;;28.45;55.36;99891.34;5112864;28;20213;-67
2022/06/25 07:45:56;;;;;;;2.83;2.45;;;;;;;28.91;53.14;99900.03;5113176;28;20613;-67
2022/06/25 07:48:23;;;;;;;8.30;3.20;;;;;;;28.76;54.07;99899.19;5112397;28;20285;-67
2022/06/25 07:53:34;;;;;;;3.00;2.80;;;;;;;29.23;54.06;99911.31;5101713;28;20289;-68
2022/06/25 07:56:02;;;;;;;4.20;2.65;;;;;;;29.43;51.92;99902.94;5112962;28;20234;-67
2022/06/25 07:58:30;;;;;;;5.40;2.70;;;;;;;29.65;50.48;99895.19;5112802;28;20627;-67
2022/06/25 08:00:57;;;;;;;6.35;2.30;;;;;;;29.51;51.86;99895.25;5112712;28;20201;-68
2022/06/25 08:03:24;;;;;;;3.42;3.10;;;;;;;29.94;51.96;99904.81;5112057;28;20205;-68
2022/06/25 08:05:51;;;;;;;7.85;2.72;;;;;;;30.25;50.72;99913.44;5112129;28;20225;-68
2022/06/25 08:08:17;;;;;;;3.67;2.67;;;;;;;30.34;48.68;99902.97;5077029;28;20678;-68
2022/06/25 08:10:44;;;;;;;3.85;3.20;;;;;;;30.14;47.80;99910.66;5112307;28;20209;-68
2022/06/25 08:13:12;;;;;;;4.43;2.72;;;;;;;30.34;47.52;99915.47;5112370;28;20265;-68
2022/06/25 08:15:39;;;;;;;4.50;2.60;;;;;;;29.71;48.15;99886.78;5108029;28;20212;-68
2022/06/25 08:18:06;;;;;;;4.70;3.00;;;;;;;29.90;48.04;99910.47;5111580;28;20209;-74
2022/06/25 08:20:33;;;;;;;3.17;2.47;;;;;;;29.72;47.93;99893.81;5112295;28;20209;-66
2022/06/25 08:23:00;;;;;;;3.72;2.78;;;;;;;29.61;48.19;99904.34;5112178;28;20274;-66
2022/06/25 08:25:26;;;;;;;5.25;2.60;;;;;;;29.74;48.23;99913.31;5111443;28;20712;-68
2022/06/25 08:27:54;;;;;;;3.35;2.60;;;;;;;29.65;46.73;99903.19;5111823;28;20204;-68
2022/06/25 08:30:24;;;;;;;8.10;2.95;;;;;;;29.97;46.71;99912.63;5092196;28;20936;-68
2022/06/25 08:32:51;;;;;;;4.00;3.00;;;;;;;29.76;46.29;99922.06;5111781;28;20748;-68
2022/06/25 08:35:18;;;;;;;6.22;3.30;;;;;;;30.08;47.13;99901.22;5112204;28;20223;-68
2022/06/25 08:37:47;;;;;;;5.70;3.03;;;;;;;29.85;46.56;99892.09;5092742;28;20565;-67
2022/06/25 08:40:14;;;;;;;4.60;2.95;;;;;;;29.98;46.40;99911.69;5112047;28;20204;-67
2022/06/25 08:42:41;;;;;;;3.65;2.95;;;;;;;30.18;46.81;99894.25;5112052;28;20205;-67
2022/06/25 08:45:09;;;;;;;5.20;2.97;;;;;;;30.16;45.76;99898.00;5111748;28;20691;-67
2022/06/25 08:47:43;;;;;;;8.48;3.22;;;;;;;30.59;45.11;99898.59;5075993;28;20592;-67
2022/06/25 08:50:10;;;;;;;5.88;2.80;;;;;;;30.75;44.71;99907.28;5106156;28;20225;-68
2022/06/25 08:52:38;;;;;;;4.50;3.17;;;;;;;30.66;45.20;99908.78;5091484;28;20258;-68
2022/06/25 08:55:07;;;;;;;15.18;3.20;;;;;;;30.80;45.96;99908.66;5105663;28;20231;-67
2022/06/25 08:57:34;;;;;;;6.40;3.10;;;;;;;30.76;45.55;99903.59;5091229;28;20229;-68
2022/06/25 09:00:00;;;;;;;5.55;2.78;;;;;;;30.48;45.48;99867.22;5091284;28;20201;-70
2022/06/25 09:02:27;;;;;;;3.75;3.05;;;;;;;30.65;45.27;99907.03;5099296;28;20205;-68
2022/06/25 09:04:55;;;;;;;6.55;2.55;;;;;;;30.52;45.19;99884.78;5091288;28;20228;-67
2022/06/25 09:07:22;;;;;;;7.25;2.88;;;;;;;30.53;46.00;99891.88;5091332;28;20209;-68
2022/06/25 09:09:50;;;;;;;4.90;2.80;;;;;;;30.72;45.21;99904.78;5103591;28;20219;-67
2022/06/25 09:12:18;;;;;;;8.45;3.00;;;;;;;30.37;45.53;99851.03;5100289;28;20217;-68
2022/06/25 09:14:46;;;;;;;3.33;3.10;;;;;;;30.80;46.63;99911.31;5093536;28;20193;-68
2022/06/25 09:17:14;;;;;;;4.75;2.63;;;;;;;30.78;45.31;99902.56;5099465;28;20197;-67
2022/06/25 09:19:42;;;;;;;3.00;2.80;;;;;;;30.81;45.41;99902.34;5111372;28;20284;-68
2022/06/25 09:22:13;;;;;;;5.97;3.03;;;;;;;30.86;45.08;99902.84;5111209;28;20197;-67
2022/06/25 09:24:46;;;;;;;4.10;3.08;;;;;;;30.75;46.09;99901.91;5100859;28;20206;-67
2022/06/25 09:27:13;;;;;;;5.15;2.95;;;;;;;30.89;46.69;99899.94;5107370;28;20240;-67
2022/06/25 09:29:42;;;;;;;4.82;3.22;;;;;;;30.68;45.42;99898.78;5099452;28;20656;-68
2022/06/25 09:32:10;;;;;;;3.10;2.80;;;;;;;30.82;44.83;99897.84;5098082;28;20214;-67
2022/06/25 09:34:38;;;;;;;4.43;3.22;;;;;;;30.56;45.57;99906.84;5102049;28;20201;-68
2022/06/25 09:37:25;;;;;;;7.38;3.42;;;;;;;30.88;45.11;99887.53;5075457;28;20209;-69
2022/06/25 09:39:54;;;;;;;4.03;3.30;;;;;;;31.05;45.01;99897.06;5105522;28;20711;-67
2022/06/25 09:42:26;;;;;;;7.60;3.15;;;;;;;31.02;44.90;99883.03;5096119;28;20201;-68
2022/06/25 09:45:08;;;;;;;5.70;3.22;;;;;;;31.05;42.84;99896.19;5107749;28;20196;-72
2022/06/25 09:47:37;;;;;;;3.55;3.15;;;;;;;30.91;44.37;99881.97;5111742;28;20668;-66
2022/06/25 09:50:06;;;;;;;3.22;2.70;;;;;;;31.03;43.22;99895.47;5111626;28;20221;-67
2022/06/25 09:52:35;;;;;;;6.82;3.10;;;;;;;31.21;45.33;99892.31;5108915;28;20212;-66
2022/06/25 09:55:02;;;;;;;4.80;3.00;;;;;;;31.06;42.61;99895.25;5099246;28;20197;-70
2022/06/25 09:57:31;;;;;;;3.75;2.78;;;;;;;31.05;43.31;99874.78;5095288;28;20209;-68
2022/06/25 10:00:00;;;;;;;3.20;2.90;;;;;;;31.29;42.03;99876.50;5113125;28;20679;-67
2022/06/25 10:02:29;;;;;;;7.55;3.40;;;;;;;31.54;42.96;99890.78;5103540;28;20197;-67
2022/06/25 10:05:01;;;;;;;6.43;3.38;;;;;;;31.67;42.88;99896.97;5104870;28;20551;-67
2022/06/25 10:10:17;;;;;;;5.25;2.83;;;;;;;31.58;41.88;99886.91;5114591;28;20211;-66
2022/06/25 10:12:45;;;;;;;6.03;2.90;;;;;;;31.50;42.07;99887.47;5103482;28;20197;-66
2022/06/25 10:15:15;;;;;;;6.30;3.17;;;;;;;31.61;42.10;99884.00;5114510;28;20213;-66
2022/06/25 10:17:43;;;;;;;5.35;3.22;;;;;;;31.66;42.89;99889.91;5114886;28;20205;-66
2022/06/25 10:20:12;;;;;;;3.15;2.85;;;;;;;32.02;41.92;99887.09;5117229;28;20205;-65
2022/06/25 10:22:39;;;;;;;3.38;2.53;;;;;;;31.88;39.43;99874.75;5076049;28;20612;-66
2022/06/25 10:25:11;;;;;;;4.50;2.60;;;;;;;31.62;41.44;99889.28;5100134;28;20201;-66
2022/06/25 10:27:40;;;;;;;9.45;2.88;;;;;;;31.95;41.46;99894.78;5106007;28;20599;-66
2022/06/25 10:30:07;;;;;;;4.13;2.90;;;;;;;32.14;40.52;99896.91;5095924;28;20229;-66
2022/06/25 10:32:43;;;;;;;4.45;2.80;;;;;;;32.45;39.70;99895.41;5096345;28;20199;-67
2022/06/25 10:35:10;;;;;;;5.95;2.45;;;;;;;31.79;40.17;99896.91;5105619;28;20212;-66
2022/06/25 10:38:02;;;;;;;3.53;2.47;;;;;;;32.01;39.03;99889.91;5099709;28;20207;-66
2022/06/25 10:40:31;;;;;;;5.25;2.88;;;;;;;32.06;39.15;99877.88;5108085;28;20205;-66
2022/06/25 10:43:01;;;;;;;2.50;2.30;;;;;;;32.18;37.01;99897.53;5106531;28;20691;-67
2022/06/25 10:45:52;;;;;;;7.82;2.85;;;;;;;32.24;36.21;99895.25;5109232;28;20220;-67
2022/06/25 10:48:23;;;;;;;5.70;2.10;;;;;;;32.31;35.89;99890.25;5071422;28;20208;-67
2022/06/25 10:50:51;;;;;;;7.55;2.55;;;;;;;32.34;36.98;99890.03;5095870;28;20712;-67
2022/06/25 10:53:19;;;;;;;4.05;2.35;;;;;;;32.45;37.26;99881.97;5093762;28;20201;-69
2022/06/25 10:56:16;;;;;;;4.72;2.70;;;;;;;32.37;35.66;99844.13;5068325;28;20201;-71
2022/06/25 10:58:48;;;;;;;2.72;2.53;;;;;;;32.77;35.44;99874.94;5106592;28;20206;-72
2022/06/25 11:01:33;;;;;;;3.85;2.55;;;;;;;32.82;35.31;99883.47;5092693;28;20288;-71
2022/06/25 11:04:09;;;;;;;4.25;2.30;;;;;;;32.47;34.47;99853.16;5104127;28;20208;-72
2022/06/25 11:06:38;;;;;;;2.70;2.33;;;;;;;32.73;34.60;99888.75;5106756;28;20299;-72
2022/06/25 11:09:16;;;;;;;8.63;3.25;;;;;;;32.85;34.75;99877.03;5057105;28;20439;-72
2022/06/25 11:11:47;;;;;;;8.48;2.60;;;;;;;32.34;33.88;99896.25;5093004;28;20593;-72
2022/06/25 11:14:21;;;;;;;3.33;2.60;;;;;;;32.59;34.46;99871.03;5106853;27;20213;-68
2022/06/25 11:16:48;;;;;;;4.20;2.38;;;;;;;33.09;33.61;99880.41;5096660;28;20201;-68
2022/06/25 11:19:16;;;;;;;3.40;2.50;;;;;;;33.02;34.33;99864.91;5106988;28;20217;-67
2022/06/25 11:21:45;;;;;;;3.47;2.40;;;;;;;32.73;33.38;99884.22;5102005;28;20208;-67
2022/06/25 11:24:14;;;;;;;7.75;2.55;;;;;;;32.61;34.25;99882.50;5091917;28;20288;-67
2022/06/25 11:29:31;;;;;;;4.32;2.80;;;;;;;32.87;35.14;99881.28;5091256;28;20316;-68
2022/06/25 11:31:58;;;;;;;2.88;2.53;;;;;;;32.56;35.52;99865.88;5095730;28;20283;-68
2022/06/25 11:34:27;;;;;;;2.85;2.63;;;;;;;32.33;36.02;99874.88;5091904;28;20665;-68
2022/06/25 11:36:58;;;;;;;2.97;2.78;;;;;;;32.45;36.05;99879.31;5093056;28;20198;-68
2022/06/25 11:39:25;;;;;;;3.42;2.45;;;;;;;32.88;35.86;99866.88;5111450;28;20208;-68
2022/06/25 11:41:52;;;;;;;10.23;2.65;;;;;;;32.52;36.25;99853.69;5093489;28;20201;-68
2022/06/25 11:44:19;;;;;;;3.17;2.95;;;;;;;33.11;35.67;99872.25;5112287;28;20193;-68
2022/06/25 11:46:49;;;;;;;3.45;2.47;;;;;;;33.35;35.35;99860.34;5057881;28;20218;-69
2022/06/25 11:49:18;;;;;;;3.80;2.85;;;;;;;33.38;33.50;99862.78;5092547;28;20204;-68